Accueil
METAR-TAF:

METAR-TAF

Aéroports :

Benson, Angleterre

latitude: 51-37N, longitude: 001-05W, altitude: 63 m

Observation

Le bulletin a été fait il y a 21 minutes, à 09:50 UTC
Vent 3 kt de nord
Température 9°C
Humidité 81%
Pression 1017 hPa
Visibilité 10 km ou plus
Quelques nuages à une hauteur de 1400 ft
Nuages épars à une hauteur de 1500 ft
Nuages fragmentés à une hauteur de 1800 ft

METAR: EGUB 280950Z 35003KT 9999 FEW014 SCT015 BKN018 09/06 Q1017 WHT BECMG SCT025 BLU

Heure: 11:11 (10:11 UTC)

Prévision

Le bulletin a été fait il y a 1 heure et 15 minutes, à 08:56 UTC
Prévision valable du 28 à 09 UTC au 28 à 18 UTC
Vent 6 kt de nord/nord-ouest
Visibilité 10 km ou plus
Nuages épars à une hauteur de 1200 ft
Nuages fragmentés à une hauteur de 1800 ft
Evoluant progressivement
du 28 à 09 UTC au 28 à 11 UTC
Nuages épars à une hauteur de 2600 ft

TAF: EGUB 280856Z 2809/2818 34006KT 9999 SCT012 BKN018 BECMG 2809/2811 SCT026

Observations et prévisions météorologiques de plus de 4000 aéroports (messages METAR et TAF).

Les stations disponibles sont représentées par des disques jaunes et rouges sur la carte.

Passer la souris dessus pour voir le nom de la station.

Cliquer dessus pour voir les observations et prévisions météorologiques.

Pour changer de carte: cliquez sur les boutons verts avec une croix noire pour zoomer, sur le bouton vert avec un tiret pour effectuer un zoom arrière, ou sur les flèches vertes pour les cartes adjacentes.


METAR-TAF: